Ivs Sparrowhawk — 9V2742 — position and weather

sailwx.info

Track history (hours):
 
Tides and Currents Weather Stations Pressure Air Temp Water Temp Dewpoint Dewpoint Depression Visibility Wind Speed Wind Dir Waves Ship Positions

Ivs Sparrowhawk

Last reported at 2018-Jan-10 17:42 UTC. Time now 2018-Jan-19 19:37 UTC.
Position N 49°35' W 004°01'.
Warning: this ship's position is 9 days out of date.

Length 180 m; draft 10 m.

Type: Cargo ship. MMSI: 565583000.

Date/timePositionNaut miles runAvg speedWind from/ knotsBaromVisibWave heightAir tempDewpointWater temp
2018-Jan-10 17:42N 49°35' W 004°01'911.1
2018-Jan-10 16:52N 49°39' W 003°49'411.0
2018-Jan-10 16:29N 49°41' W 003°43'810.8
2018-Jan-10 15:45N 49°45' W 003°32'310.7
2018-Jan-10 15:27N 49°47' W 003°28'410.3
2018-Jan-10 15:00N 49°49' W 003°22'510.1
2018-Jan-10 14:30N 49°52' W 003°15'510.0
2018-Jan-10 14:00N 49°55' W 003°09'510.0
2018-Jan-10 13:30N 49°57' W 003°02'5 9.8
2018-Jan-10 13:00N 49°59' W 002°55'510.1
2018-Jan-10 12:30N 50°00' W 002°48'510.4
2018-Jan-10 12:00N 50°02' W 002°40'610.4
2018-Jan-10 11:27N 50°03' W 002°31'5512.4
2018-Jan-10 07:02N 50°18' W 001°08'012.5
2018-Jan-10 07:00N 50°18' W 001°08'612.4
2018-Jan-10 06:30N 50°20' W 000°59'612.0
2018-Jan-10 06:00N 50°22' W 000°50'1511.2
2018-Jan-10 04:39N 50°25' W 000°26'110.6
2018-Jan-10 04:30N 50°26' W 000°24'510.3
2018-Jan-10 04:00N 50°27' W 000°16'5 9.7
2018-Jan-10 03:30N 50°28' W 000°09'5 9.6
2018-Jan-10 03:00N 50°29' W 000°01'5 9.4
2018-Jan-10 02:30N 50°31' E 000°06'5 9.5
2018-Jan-10 02:00N 50°32' E 000°13'5 9.7
2018-Jan-10 01:30N 50°33' E 000°20'510.3
2018-Jan-10 01:00N 50°35' E 000°28'510.8
2018-Jan-10 00:30N 50°36' E 000°36'611.1
2018-Jan-10 00:00N 50°39' E 000°43'611.4
2018-Jan-09 23:30N 50°43' E 000°50'611.8
2018-Jan-09 23:00N 50°46' E 000°58'611.7
2018-Jan-09 22:30N 50°49' E 001°06'611.6
2018-Jan-09 22:00N 50°53' E 001°13'611.3
2018-Jan-09 21:30N 50°56' E 001°20'511.0
2018-Jan-09 21:01N 51°01' E 001°26'510.4
2018-Jan-09 20:30N 51°04' E 001°31'5 9.4
2018-Jan-09 20:00N 51°07' E 001°37'5 9.1
2018-Jan-09 19:30N 51°11' E 001°42'5 9.2
2018-Jan-09 19:00N 51°14' E 001°47'5 9.1
2018-Jan-09 18:30N 51°18' E 001°50'5 9.4
2018-Jan-09 18:00N 51°22' E 001°53'5 9.8
2018-Jan-09 17:31N 51°27' E 001°57'510.4
2018-Jan-09 17:00N 51°31' E 002°02'510.9
2018-Jan-09 16:30N 51°35' E 002°08'611.6
2018-Jan-09 16:00N 51°39' E 002°14'612.1
2018-Jan-09 15:30N 51°44' E 002°21'912.6
2018-Jan-09 14:45N 51°51' E 002°31'32311.0
2018-Jan-08 09:32N 56°31' E 007°04'8411.4
2018-Jan-08 02:09N 57°29' E 008°56'211.3
2018-Jan-08 02:00N 57°30' E 008°59'611.2
2018-Jan-08 01:29N 57°33' E 009°08'510.9
2018-Jan-08 01:00N 57°35' E 009°16'510.7
2018-Jan-08 00:30N 57°38' E 009°25'510.4
2018-Jan-07 23:59N 57°41' E 009°34'510.2
2018-Jan-07 23:30N 57°42' E 009°43'510.2
2018-Jan-07 22:59N 57°44' E 009°52'5 9.8
2018-Jan-07 22:30N 57°45' E 010°01'5 9.6
2018-Jan-07 21:59N 57°46' E 010°10'5 9.5
2018-Jan-07 21:29N 57°47' E 010°19'5 9.7
2018-Jan-07 21:00N 57°48' E 010°27'4 8.6
2018-Jan-07 20:29N 57°49' E 010°35'4 7.8
2018-Jan-07 20:00N 57°49' E 010°42'4 8.0
2018-Jan-07 19:30N 57°47' E 010°49'5 9.5
2018-Jan-07 19:00N 57°44' E 010°55'5 9.9
2018-Jan-07 18:30N 57°40' E 011°02'510.5
2018-Jan-07 18:00N 57°37' E 011°09'611.7
2018-Jan-07 17:30N 57°33' E 011°17'611.9
2018-Jan-07 17:00N 57°29' E 011°25'611.7
2018-Jan-07 16:30N 57°23' E 011°30'612.1
2018-Jan-07 16:00N 57°18' E 011°34'611.9
2018-Jan-07 15:30N 57°12' E 011°37'611.8
2018-Jan-07 15:00N 57°06' E 011°40'611.6
2018-Jan-07 14:30N 57°01' E 011°44'611.3
2018-Jan-07 13:56N 56°55' E 011°48'1111.0
2018-Jan-07 12:56N 56°44' E 011°53'512.1
2018-Jan-07 12:30N 56°40' E 011°48'812.2
2018-Jan-07 11:48N 56°32' E 011°40'1612.0
2018-Jan-07 10:29N 56°19' E 011°26'611.9
2018-Jan-07 09:59N 56°14' E 011°20'5411.8
2018-Jan-07 05:24N 55°21' E 011°02'613.3
2018-Jan-07 04:58N 55°15' E 011°05'510.8
2018-Jan-07 04:30N 55°10' E 011°04'713.3
2018-Jan-07 04:00N 55°04' E 011°02'612.3
2018-Jan-07 03:30N 54°58' E 010°57'713.5
2018-Jan-07 03:00N 54°53' E 010°50'713.3
2018-Jan-07 02:30N 54°46' E 010°48'611.1
2018-Jan-07 02:00N 54°41' E 010°47'510.1
2018-Jan-07 01:30N 54°38' E 010°54'1211.9
2018-Jan-07 00:30N 54°35' E 011°14'612.8
2018-Jan-07 00:00N 54°32' E 011°24'612.4
2018-Jan-06 23:30N 54°30' E 011°34'612.2
2018-Jan-06 23:00N 54°27' E 011°43'711.9
2018-Jan-06 22:25N 54°26' E 011°55'512.2
2018-Jan-06 22:00N 54°26' E 012°04'510.6
2018-Jan-06 21:30N 54°29' E 012°12'1111.7
2018-Jan-06 20:32N 54°38' E 012°22'6412.2
2018-Jan-06 15:19N 55°03' E 014°04'612.4
2018-Jan-06 14:48N 55°08' E 014°11'412.5
2018-Jan-06 14:30N 55°11' E 014°15'612.3
2018-Jan-06 14:00N 55°16' E 014°22'712.2
2018-Jan-06 13:27N 55°21' E 014°30'512.3
2018-Jan-06 13:00N 55°25' E 014°35'612.0
2018-Jan-06 12:30N 55°28' E 014°45'612.1
2018-Jan-06 11:59N 55°31' E 014°55'612.1
2018-Jan-06 11:29N 55°34' E 015°04'612.1
2018-Jan-06 11:00N 55°36' E 015°13'612.4
2018-Jan-06 10:30N 55°38' E 015°24'612.2
2018-Jan-06 10:00N 55°39' E 015°34'612.0
2018-Jan-06 09:30N 55°41' E 015°45'611.8
2018-Jan-06 09:00N 55°42' E 015°55'611.7
2018-Jan-06 08:30N 55°44' E 016°05'611.7
2018-Jan-06 08:00N 55°46' E 016°15'611.7
2018-Jan-06 07:30N 55°47' E 016°25'611.6
2018-Jan-06 06:58N 55°48' E 016°35'  
Track history (hours):
 
Tides and Currents Weather Stations Pressure Air Temp Water Temp Dewpoint Dewpoint Depression Visibility Wind Speed Wind Dir Waves Ship Positions

Ivs Sparrowhawk

Last reported at 2018-Jan-10 17:42 UTC. Time now 2018-Jan-19 19:37 UTC.
Position N 49°35' W 004°01'.
Warning: this ship's position is 9 days out of date.

Length 180 m; draft 10 m.

Type: Cargo ship. MMSI: 565583000.

Date/timePositionNaut miles runAvg speedWind from/ knotsBaromVisibWave heightAir tempDewpointWater temp
2018-Jan-10 17:42N 49°35' W 004°01'911.1
2018-Jan-10 16:52N 49°39' W 003°49'411.0
2018-Jan-10 16:29N 49°41' W 003°43'810.8
2018-Jan-10 15:45N 49°45' W 003°32'310.7
2018-Jan-10 15:27N 49°47' W 003°28'410.3
2018-Jan-10 15:00N 49°49' W 003°22'510.1
2018-Jan-10 14:30N 49°52' W 003°15'510.0
2018-Jan-10 14:00N 49°55' W 003°09'510.0
2018-Jan-10 13:30N 49°57' W 003°02'5 9.8
2018-Jan-10 13:00N 49°59' W 002°55'510.1
2018-Jan-10 12:30N 50°00' W 002°48'510.4
2018-Jan-10 12:00N 50°02' W 002°40'610.4
2018-Jan-10 11:27N 50°03' W 002°31'5512.4
2018-Jan-10 07:02N 50°18' W 001°08'012.5
2018-Jan-10 07:00N 50°18' W 001°08'612.4
2018-Jan-10 06:30N 50°20' W 000°59'612.0
2018-Jan-10 06:00N 50°22' W 000°50'1511.2
2018-Jan-10 04:39N 50°25' W 000°26'110.6
2018-Jan-10 04:30N 50°26' W 000°24'510.3
2018-Jan-10 04:00N 50°27' W 000°16'5 9.7
2018-Jan-10 03:30N 50°28' W 000°09'5 9.6
2018-Jan-10 03:00N 50°29' W 000°01'5 9.4
2018-Jan-10 02:30N 50°31' E 000°06'5 9.5
2018-Jan-10 02:00N 50°32' E 000°13'5 9.7
2018-Jan-10 01:30N 50°33' E 000°20'510.3
2018-Jan-10 01:00N 50°35' E 000°28'510.8
2018-Jan-10 00:30N 50°36' E 000°36'611.1
2018-Jan-10 00:00N 50°39' E 000°43'611.4
2018-Jan-09 23:30N 50°43' E 000°50'611.8
2018-Jan-09 23:00N 50°46' E 000°58'611.7
2018-Jan-09 22:30N 50°49' E 001°06'611.6
2018-Jan-09 22:00N 50°53' E 001°13'611.3
2018-Jan-09 21:30N 50°56' E 001°20'511.0
2018-Jan-09 21:01N 51°01' E 001°26'510.4
2018-Jan-09 20:30N 51°04' E 001°31'5 9.4
2018-Jan-09 20:00N 51°07' E 001°37'5 9.1
2018-Jan-09 19:30N 51°11' E 001°42'5 9.2
2018-Jan-09 19:00N 51°14' E 001°47'5 9.1
2018-Jan-09 18:30N 51°18' E 001°50'5 9.4
2018-Jan-09 18:00N 51°22' E 001°53'5 9.8
2018-Jan-09 17:31N 51°27' E 001°57'510.4
2018-Jan-09 17:00N 51°31' E 002°02'510.9
2018-Jan-09 16:30N 51°35' E 002°08'611.6
2018-Jan-09 16:00N 51°39' E 002°14'612.1
2018-Jan-09 15:30N 51°44' E 002°21'912.6
2018-Jan-09 14:45N 51°51' E 002°31'32311.0
2018-Jan-08 09:32N 56°31' E 007°04'8411.4
2018-Jan-08 02:09N 57°29' E 008°56'211.3
2018-Jan-08 02:00N 57°30' E 008°59'611.2
2018-Jan-08 01:29N 57°33' E 009°08'510.9
2018-Jan-08 01:00N 57°35' E 009°16'510.7
2018-Jan-08 00:30N 57°38' E 009°25'510.4
2018-Jan-07 23:59N 57°41' E 009°34'510.2
2018-Jan-07 23:30N 57°42' E 009°43'510.2
2018-Jan-07 22:59N 57°44' E 009°52'5 9.8
2018-Jan-07 22:30N 57°45' E 010°01'5 9.6
2018-Jan-07 21:59N 57°46' E 010°10'5 9.5
2018-Jan-07 21:29N 57°47' E 010°19'5 9.7
2018-Jan-07 21:00N 57°48' E 010°27'4 8.6
2018-Jan-07 20:29N 57°49' E 010°35'4 7.8
2018-Jan-07 20:00N 57°49' E 010°42'4 8.0
2018-Jan-07 19:30N 57°47' E 010°49'5 9.5
2018-Jan-07 19:00N 57°44' E 010°55'5 9.9
2018-Jan-07 18:30N 57°40' E 011°02'510.5
2018-Jan-07 18:00N 57°37' E 011°09'611.7
2018-Jan-07 17:30N 57°33' E 011°17'611.9
2018-Jan-07 17:00N 57°29' E 011°25'611.7
2018-Jan-07 16:30N 57°23' E 011°30'612.1
2018-Jan-07 16:00N 57°18' E 011°34'611.9
2018-Jan-07 15:30N 57°12' E 011°37'611.8
2018-Jan-07 15:00N 57°06' E 011°40'611.6
2018-Jan-07 14:30N 57°01' E 011°44'611.3
2018-Jan-07 13:56N 56°55' E 011°48'1111.0
2018-Jan-07 12:56N 56°44' E 011°53'512.1
2018-Jan-07 12:30N 56°40' E 011°48'812.2
2018-Jan-07 11:48N 56°32' E 011°40'1612.0
2018-Jan-07 10:29N 56°19' E 011°26'611.9
2018-Jan-07 09:59N 56°14' E 011°20'5411.8
2018-Jan-07 05:24N 55°21' E 011°02'613.3
2018-Jan-07 04:58N 55°15' E 011°05'510.8
2018-Jan-07 04:30N 55°10' E 011°04'713.3
2018-Jan-07 04:00N 55°04' E 011°02'612.3
2018-Jan-07 03:30N 54°58' E 010°57'713.5
2018-Jan-07 03:00N 54°53' E 010°50'713.3
2018-Jan-07 02:30N 54°46' E 010°48'611.1
2018-Jan-07 02:00N 54°41' E 010°47'510.1
2018-Jan-07 01:30N 54°38' E 010°54'1211.9
2018-Jan-07 00:30N 54°35' E 011°14'612.8
2018-Jan-07 00:00N 54°32' E 011°24'612.4
2018-Jan-06 23:30N 54°30' E 011°34'612.2
2018-Jan-06 23:00N 54°27' E 011°43'711.9
2018-Jan-06 22:25N 54°26' E 011°55'512.2
2018-Jan-06 22:00N 54°26' E 012°04'510.6
2018-Jan-06 21:30N 54°29' E 012°12'1111.7
2018-Jan-06 20:32N 54°38' E 012°22'6412.2
2018-Jan-06 15:19N 55°03' E 014°04'612.4
2018-Jan-06 14:48N 55°08' E 014°11'412.5
2018-Jan-06 14:30N 55°11' E 014°15'612.3
2018-Jan-06 14:00N 55°16' E 014°22'712.2
2018-Jan-06 13:27N 55°21' E 014°30'512.3
2018-Jan-06 13:00N 55°25' E 014°35'612.0
2018-Jan-06 12:30N 55°28' E 014°45'612.1
2018-Jan-06 11:59N 55°31' E 014°55'612.1
2018-Jan-06 11:29N 55°34' E 015°04'612.1
2018-Jan-06 11:00N 55°36' E 015°13'612.4
2018-Jan-06 10:30N 55°38' E 015°24'612.2
2018-Jan-06 10:00N 55°39' E 015°34'612.0
2018-Jan-06 09:30N 55°41' E 015°45'611.8
2018-Jan-06 09:00N 55°42' E 015°55'611.7
2018-Jan-06 08:30N 55°44' E 016°05'611.7
2018-Jan-06 08:00N 55°46' E 016°15'611.7
2018-Jan-06 07:30N 55°47' E 016°25'611.6
2018-Jan-06 06:58N 55°48' E 016°35'  

Dump ship's entire track history